sensor_id;sensor_type;location;lat;lon;timestamp;P1;durP1;ratioP1;P2;durP2;ratioP2
45784;SDS011;31489;51.404;5.474;2023-04-15T00:01:23;7.88;;;3.13;;
45784;SDS011;31489;51.404;5.474;2023-04-15T00:03:50;6.22;;;3.35;;
45784;SDS011;31489;51.404;5.474;2023-04-15T00:06:16;8.23;;;3.38;;
45784;SDS011;31489;51.404;5.474;2023-04-15T00:08:43;6.88;;;3.05;;
45784;SDS011;31489;51.404;5.474;2023-04-15T00:11:09;7.93;;;3.33;;
45784;SDS011;31489;51.404;5.474;2023-04-15T00:13:35;9.80;;;3.47;;
45784;SDS011;31489;51.404;5.474;2023-04-15T00:16:00;9.27;;;3.50;;
45784;SDS011;31489;51.404;5.474;2023-04-15T00:18:26;7.85;;;3.15;;
45784;SDS011;31489;51.404;5.474;2023-04-15T00:20:53;7.55;;;3.50;;
45784;SDS011;31489;51.404;5.474;2023-04-15T00:23:19;7.47;;;3.20;;
45784;SDS011;31489;51.404;5.474;2023-04-15T00:25:44;8.50;;;3.45;;
45784;SDS011;31489;51.404;5.474;2023-04-15T00:28:10;8.05;;;3.20;;
45784;SDS011;31489;51.404;5.474;2023-04-15T00:30:36;6.95;;;3.25;;
45784;SDS011;31489;51.404;5.474;2023-04-15T00:33:02;7.80;;;3.28;;
45784;SDS011;31489;51.404;5.474;2023-04-15T00:35:28;8.75;;;3.45;;
45784;SDS011;31489;51.404;5.474;2023-04-15T00:37:56;8.25;;;3.58;;
45784;SDS011;31489;51.404;5.474;2023-04-15T00:40:22;6.82;;;3.35;;
45784;SDS011;31489;51.404;5.474;2023-04-15T00:42:48;6.45;;;3.13;;
45784;SDS011;31489;51.404;5.474;2023-04-15T00:45:14;9.80;;;3.80;;
45784;SDS011;31489;51.404;5.474;2023-04-15T00:47:40;8.98;;;3.53;;
45784;SDS011;31489;51.404;5.474;2023-04-15T00:50:08;11.07;;;3.53;;
45784;SDS011;31489;51.404;5.474;2023-04-15T00:52:34;8.45;;;3.55;;
45784;SDS011;31489;51.404;5.474;2023-04-15T00:55:00;7.60;;;3.50;;
45784;SDS011;31489;51.404;5.474;2023-04-15T00:57:26;7.03;;;4.30;;
45784;SDS011;31489;51.404;5.474;2023-04-15T00:59:53;5.10;;;3.30;;
45784;SDS011;31489;51.404;5.474;2023-04-15T01:02:20;7.25;;;3.75;;
45784;SDS011;31489;51.404;5.474;2023-04-15T01:04:46;5.18;;;3.15;;
45784;SDS011;31489;51.404;5.474;2023-04-15T01:07:12;7.03;;;3.28;;
45784;SDS011;31489;51.404;5.474;2023-04-15T01:09:38;6.72;;;3.45;;
45784;SDS011;31489;51.404;5.474;2023-04-15T01:12:04;6.05;;;3.40;;
45784;SDS011;31489;51.404;5.474;2023-04-15T01:14:30;9.23;;;3.88;;
45784;SDS011;31489;51.404;5.474;2023-04-15T01:16:57;8.70;;;3.80;;
45784;SDS011;31489;51.404;5.474;2023-04-15T01:19:23;7.70;;;4.13;;
45784;SDS011;31489;51.404;5.474;2023-04-15T01:21:48;12.63;;;3.85;;
45784;SDS011;31489;51.404;5.474;2023-04-15T01:24:14;7.20;;;4.18;;
45784;SDS011;31489;51.404;5.474;2023-04-15T01:26:42;6.78;;;4.20;;
45784;SDS011;31489;51.404;5.474;2023-04-15T01:29:08;7.82;;;4.30;;
45784;SDS011;31489;51.404;5.474;2023-04-15T01:31:33;6.40;;;3.78;;
45784;SDS011;31489;51.404;5.474;2023-04-15T01:33:59;13.63;;;4.10;;
45784;SDS011;31489;51.404;5.474;2023-04-15T01:36:25;6.53;;;3.97;;
45784;SDS011;31489;51.404;5.474;2023-04-15T01:38:50;5.63;;;3.92;;
45784;SDS011;31489;51.404;5.474;2023-04-15T01:41:20;5.95;;;4.05;;
45784;SDS011;31489;51.404;5.474;2023-04-15T01:43:50;7.32;;;4.30;;
45784;SDS011;31489;51.404;5.474;2023-04-15T01:46:16;7.35;;;3.90;;
45784;SDS011;31489;51.404;5.474;2023-04-15T01:48:42;8.95;;;4.22;;
45784;SDS011;31489;51.404;5.474;2023-04-15T01:51:07;8.35;;;3.88;;
45784;SDS011;31489;51.404;5.474;2023-04-15T01:53:33;8.20;;;4.63;;
45784;SDS011;31489;51.404;5.474;2023-04-15T01:55:59;7.00;;;4.13;;
45784;SDS011;31489;51.404;5.474;2023-04-15T01:58:24;9.68;;;4.85;;
45784;SDS011;31489;51.404;5.474;2023-04-15T02:00:51;8.27;;;4.68;;
45784;SDS011;31489;51.404;5.474;2023-04-15T02:03:17;8.32;;;4.38;;
45784;SDS011;31489;51.404;5.474;2023-04-15T02:05:43;10.70;;;4.70;;
45784;SDS011;31489;51.404;5.474;2023-04-15T02:08:09;6.95;;;4.18;;
45784;SDS011;31489;51.404;5.474;2023-04-15T02:10:35;10.18;;;4.57;;
45784;SDS011;31489;51.404;5.474;2023-04-15T02:13:00;10.38;;;5.00;;
45784;SDS011;31489;51.404;5.474;2023-04-15T02:15:26;7.55;;;4.18;;
45784;SDS011;31489;51.404;5.474;2023-04-15T02:17:52;7.00;;;4.80;;
45784;SDS011;31489;51.404;5.474;2023-04-15T02:20:19;10.10;;;4.90;;
45784;SDS011;31489;51.404;5.474;2023-04-15T02:22:45;7.55;;;4.57;;
45784;SDS011;31489;51.404;5.474;2023-04-15T02:25:12;8.07;;;4.78;;
45784;SDS011;31489;51.404;5.474;2023-04-15T02:27:38;7.82;;;4.72;;
45784;SDS011;31489;51.404;5.474;2023-04-15T02:30:04;8.82;;;4.75;;
45784;SDS011;31489;51.404;5.474;2023-04-15T02:32:31;14.35;;;5.20;;
45784;SDS011;31489;51.404;5.474;2023-04-15T02:35:00;9.25;;;5.60;;
45784;SDS011;31489;51.404;5.474;2023-04-15T02:37:27;8.27;;;5.28;;
45784;SDS011;31489;51.404;5.474;2023-04-15T02:39:55;8.85;;;5.15;;
45784;SDS011;31489;51.404;5.474;2023-04-15T02:42:20;9.07;;;4.72;;
45784;SDS011;31489;51.404;5.474;2023-04-15T02:44:46;10.57;;;5.15;;
45784;SDS011;31489;51.404;5.474;2023-04-15T02:47:11;12.02;;;4.82;;
45784;SDS011;31489;51.404;5.474;2023-04-15T02:49:38;8.75;;;4.88;;
45784;SDS011;31489;51.404;5.474;2023-04-15T02:52:04;6.60;;;4.70;;
45784;SDS011;31489;51.404;5.474;2023-04-15T02:54:30;10.18;;;5.20;;
45784;SDS011;31489;51.404;5.474;2023-04-15T02:56:57;9.73;;;5.65;;
45784;SDS011;31489;51.404;5.474;2023-04-15T02:59:23;8.18;;;5.57;;
45784;SDS011;31489;51.404;5.474;2023-04-15T03:01:49;11.77;;;5.30;;
45784;SDS011;31489;51.404;5.474;2023-04-15T03:04:14;9.82;;;5.53;;
45784;SDS011;31489;51.404;5.474;2023-04-15T03:06:40;8.45;;;5.32;;
45784;SDS011;31489;51.404;5.474;2023-04-15T03:09:06;6.95;;;5.53;;
45784;SDS011;31489;51.404;5.474;2023-04-15T03:11:32;9.00;;;5.28;;
45784;SDS011;31489;51.404;5.474;2023-04-15T03:13:57;9.65;;;5.30;;
45784;SDS011;31489;51.404;5.474;2023-04-15T03:16:23;7.03;;;5.10;;
45784;SDS011;31489;51.404;5.474;2023-04-15T03:18:49;8.05;;;5.07;;
45784;SDS011;31489;51.404;5.474;2023-04-15T03:21:15;8.75;;;5.25;;
45784;SDS011;31489;51.404;5.474;2023-04-15T03:23:41;9.05;;;5.80;;
45784;SDS011;31489;51.404;5.474;2023-04-15T03:26:06;9.38;;;5.10;;
45784;SDS011;31489;51.404;5.474;2023-04-15T03:28:32;12.35;;;5.80;;
45784;SDS011;31489;51.404;5.474;2023-04-15T03:30:58;11.05;;;5.70;;
45784;SDS011;31489;51.404;5.474;2023-04-15T03:33:24;9.35;;;5.88;;
45784;SDS011;31489;51.404;5.474;2023-04-15T03:35:50;11.45;;;5.90;;
45784;SDS011;31489;51.404;5.474;2023-04-15T03:38:16;8.23;;;5.88;;
45784;SDS011;31489;51.404;5.474;2023-04-15T03:40:42;10.35;;;6.15;;
45784;SDS011;31489;51.404;5.474;2023-04-15T03:43:08;12.05;;;6.10;;
45784;SDS011;31489;51.404;5.474;2023-04-15T03:45:34;9.30;;;5.68;;
45784;SDS011;31489;51.404;5.474;2023-04-15T03:47:59;10.05;;;5.30;;
45784;SDS011;31489;51.404;5.474;2023-04-15T03:50:25;10.30;;;5.75;;
45784;SDS011;31489;51.404;5.474;2023-04-15T03:52:51;8.85;;;5.47;;
45784;SDS011;31489;51.404;5.474;2023-04-15T03:55:17;13.70;;;5.90;;
45784;SDS011;31489;51.404;5.474;2023-04-15T03:57:44;9.45;;;5.57;;
45784;SDS011;31489;51.404;5.474;2023-04-15T04:00:09;7.22;;;5.35;;
45784;SDS011;31489;51.404;5.474;2023-04-15T04:02:35;7.55;;;5.85;;
45784;SDS011;31489;51.404;5.474;2023-04-15T04:05:01;7.53;;;5.38;;
45784;SDS011;31489;51.404;5.474;2023-04-15T04:07:26;7.40;;;5.18;;
45784;SDS011;31489;51.404;5.474;2023-04-15T04:09:52;8.85;;;5.28;;
45784;SDS011;31489;51.404;5.474;2023-04-15T04:12:18;6.60;;;4.80;;
45784;SDS011;31489;51.404;5.474;2023-04-15T04:14:43;8.15;;;5.07;;
45784;SDS011;31489;51.404;5.474;2023-04-15T04:17:09;6.95;;;5.13;;
45784;SDS011;31489;51.404;5.474;2023-04-15T04:19:35;9.32;;;5.25;;
45784;SDS011;31489;51.404;5.474;2023-04-15T04:22:01;8.93;;;5.07;;
45784;SDS011;31489;51.404;5.474;2023-04-15T04:24:26;7.47;;;5.45;;
45784;SDS011;31489;51.404;5.474;2023-04-15T04:26:52;9.18;;;5.15;;
45784;SDS011;31489;51.404;5.474;2023-04-15T04:29:18;7.95;;;5.20;;
45784;SDS011;31489;51.404;5.474;2023-04-15T04:31:43;7.53;;;5.18;;
45784;SDS011;31489;51.404;5.474;2023-04-15T04:34:09;7.10;;;5.35;;
45784;SDS011;31489;51.404;5.474;2023-04-15T04:36:35;10.15;;;5.72;;
45784;SDS011;31489;51.404;5.474;2023-04-15T04:39:01;6.75;;;5.00;;
45784;SDS011;31489;51.404;5.474;2023-04-15T04:41:26;7.93;;;5.15;;
45784;SDS011;31489;51.404;5.474;2023-04-15T04:43:52;8.18;;;5.03;;
45784;SDS011;31489;51.404;5.474;2023-04-15T04:46:18;7.07;;;4.70;;
45784;SDS011;31489;51.404;5.474;2023-04-15T04:48:43;8.50;;;5.80;;
45784;SDS011;31489;51.404;5.474;2023-04-15T04:51:09;7.72;;;5.57;;
45784;SDS011;31489;51.404;5.474;2023-04-15T04:53:35;6.88;;;5.03;;
45784;SDS011;31489;51.404;5.474;2023-04-15T04:56:01;7.63;;;5.13;;
45784;SDS011;31489;51.404;5.474;2023-04-15T04:58:27;5.97;;;4.88;;
45784;SDS011;31489;51.404;5.474;2023-04-15T05:00:53;5.97;;;4.47;;
45784;SDS011;31489;51.404;5.474;2023-04-15T05:03:19;8.40;;;5.25;;
45784;SDS011;31489;51.404;5.474;2023-04-15T05:05:44;11.00;;;5.57;;
45784;SDS011;31489;51.404;5.474;2023-04-15T05:08:10;8.52;;;5.60;;
45784;SDS011;31489;51.404;5.474;2023-04-15T05:10:36;9.13;;;4.85;;
45784;SDS011;31489;51.404;5.474;2023-04-15T05:13:01;10.23;;;5.47;;
45784;SDS011;31489;51.404;5.474;2023-04-15T05:15:27;8.27;;;5.38;;
45784;SDS011;31489;51.404;5.474;2023-04-15T05:17:53;8.35;;;5.32;;
45784;SDS011;31489;51.404;5.474;2023-04-15T05:20:19;7.15;;;5.32;;
45784;SDS011;31489;51.404;5.474;2023-04-15T05:22:44;6.93;;;4.72;;
45784;SDS011;31489;51.404;5.474;2023-04-15T05:25:10;7.13;;;5.13;;
45784;SDS011;31489;51.404;5.474;2023-04-15T05:27:36;6.88;;;5.40;;
45784;SDS011;31489;51.404;5.474;2023-04-15T05:30:02;9.60;;;5.60;;
45784;SDS011;31489;51.404;5.474;2023-04-15T05:32:27;7.72;;;5.03;;
45784;SDS011;31489;51.404;5.474;2023-04-15T05:34:53;7.07;;;5.32;;
45784;SDS011;31489;51.404;5.474;2023-04-15T05:37:18;7.28;;;5.90;;
45784;SDS011;31489;51.404;5.474;2023-04-15T05:39:47;7.80;;;5.10;;
45784;SDS011;31489;51.404;5.474;2023-04-15T05:42:13;6.68;;;5.38;;
45784;SDS011;31489;51.404;5.474;2023-04-15T05:44:38;8.48;;;4.82;;
45784;SDS011;31489;51.404;5.474;2023-04-15T05:47:04;7.45;;;5.75;;
45784;SDS011;31489;51.404;5.474;2023-04-15T05:49:31;7.40;;;5.30;;
45784;SDS011;31489;51.404;5.474;2023-04-15T05:51:56;7.63;;;5.90;;
45784;SDS011;31489;51.404;5.474;2023-04-15T05:54:22;8.82;;;6.22;;
45784;SDS011;31489;51.404;5.474;2023-04-15T05:56:48;7.57;;;4.95;;
45784;SDS011;31489;51.404;5.474;2023-04-15T05:59:13;7.82;;;5.45;;
45784;SDS011;31489;51.404;5.474;2023-04-15T06:01:39;6.93;;;5.32;;
45784;SDS011;31489;51.404;5.474;2023-04-15T06:04:05;11.00;;;5.90;;
45784;SDS011;31489;51.404;5.474;2023-04-15T06:06:30;7.70;;;5.93;;
45784;SDS011;31489;51.404;5.474;2023-04-15T06:08:56;7.90;;;5.85;;
45784;SDS011;31489;51.404;5.474;2023-04-15T06:11:22;8.70;;;6.15;;
45784;SDS011;31489;51.404;5.474;2023-04-15T06:13:48;6.80;;;5.90;;
45784;SDS011;31489;51.404;5.474;2023-04-15T06:16:14;7.10;;;5.93;;
45784;SDS011;31489;51.404;5.474;2023-04-15T06:18:39;7.97;;;5.70;;
45784;SDS011;31489;51.404;5.474;2023-04-15T06:21:05;7.40;;;6.47;;
45784;SDS011;31489;51.404;5.474;2023-04-15T06:23:33;8.75;;;6.07;;
45784;SDS011;31489;51.404;5.474;2023-04-15T06:25:59;9.25;;;6.13;;
45784;SDS011;31489;51.404;5.474;2023-04-15T06:28:25;6.95;;;6.05;;
45784;SDS011;31489;51.404;5.474;2023-04-15T06:30:51;9.55;;;6.70;;
45784;SDS011;31489;51.404;5.474;2023-04-15T06:33:17;8.90;;;6.25;;
45784;SDS011;31489;51.404;5.474;2023-04-15T06:35:43;7.90;;;5.60;;
45784;SDS011;31489;51.404;5.474;2023-04-15T06:38:09;9.18;;;6.43;;
45784;SDS011;31489;51.404;5.474;2023-04-15T06:40:34;8.43;;;6.13;;
45784;SDS011;31489;51.404;5.474;2023-04-15T06:43:00;9.63;;;6.20;;
45784;SDS011;31489;51.404;5.474;2023-04-15T06:45:26;9.30;;;6.72;;
45784;SDS011;31489;51.404;5.474;2023-04-15T06:47:51;6.50;;;5.82;;
45784;SDS011;31489;51.404;5.474;2023-04-15T06:50:17;6.88;;;5.65;;
45784;SDS011;31489;51.404;5.474;2023-04-15T06:52:43;8.20;;;6.00;;
45784;SDS011;31489;51.404;5.474;2023-04-15T06:55:08;6.78;;;5.95;;
45784;SDS011;31489;51.404;5.474;2023-04-15T06:57:34;7.95;;;5.53;;
45784;SDS011;31489;51.404;5.474;2023-04-15T07:00:00;8.07;;;5.95;;
45784;SDS011;31489;51.404;5.474;2023-04-15T07:02:26;9.15;;;6.30;;
45784;SDS011;31489;51.404;5.474;2023-04-15T07:04:51;8.20;;;5.85;;
45784;SDS011;31489;51.404;5.474;2023-04-15T07:07:17;8.57;;;5.57;;
45784;SDS011;31489;51.404;5.474;2023-04-15T07:09:43;8.88;;;6.47;;
45784;SDS011;31489;51.404;5.474;2023-04-15T07:12:09;7.35;;;6.20;;
45784;SDS011;31489;51.404;5.474;2023-04-15T07:14:34;6.72;;;5.28;;
45784;SDS011;31489;51.404;5.474;2023-04-15T07:17:01;5.85;;;5.15;;
45784;SDS011;31489;51.404;5.474;2023-04-15T07:19:27;6.15;;;5.40;;
45784;SDS011;31489;51.404;5.474;2023-04-15T07:21:52;6.63;;;5.30;;
45784;SDS011;31489;51.404;5.474;2023-04-15T07:24:18;6.18;;;5.43;;
45784;SDS011;31489;51.404;5.474;2023-04-15T07:26:44;8.35;;;6.13;;
45784;SDS011;31489;51.404;5.474;2023-04-15T07:29:10;7.18;;;5.40;;
45784;SDS011;31489;51.404;5.474;2023-04-15T07:31:36;6.53;;;5.53;;
45784;SDS011;31489;51.404;5.474;2023-04-15T07:34:02;5.43;;;4.88;;
45784;SDS011;31489;51.404;5.474;2023-04-15T07:36:29;7.00;;;5.43;;
45784;SDS011;31489;51.404;5.474;2023-04-15T07:38:56;5.57;;;5.03;;
45784;SDS011;31489;51.404;5.474;2023-04-15T07:41:22;7.18;;;5.03;;
45784;SDS011;31489;51.404;5.474;2023-04-15T07:43:48;6.65;;;4.80;;
45784;SDS011;31489;51.404;5.474;2023-04-15T07:46:13;5.82;;;5.32;;
45784;SDS011;31489;51.404;5.474;2023-04-15T07:48:39;6.20;;;5.13;;
45784;SDS011;31489;51.404;5.474;2023-04-15T07:51:05;5.93;;;4.47;;
45784;SDS011;31489;51.404;5.474;2023-04-15T07:53:31;5.68;;;4.90;;
45784;SDS011;31489;51.404;5.474;2023-04-15T07:55:57;8.68;;;5.45;;
45784;SDS011;31489;51.404;5.474;2023-04-15T07:58:23;6.22;;;5.35;;
45784;SDS011;31489;51.404;5.474;2023-04-15T08:00:49;6.43;;;4.45;;
45784;SDS011;31489;51.404;5.474;2023-04-15T08:03:14;5.07;;;4.50;;
45784;SDS011;31489;51.404;5.474;2023-04-15T08:05:40;5.93;;;3.92;;
45784;SDS011;31489;51.404;5.474;2023-04-15T08:08:06;6.18;;;4.72;;
45784;SDS011;31489;51.404;5.474;2023-04-15T08:10:32;4.82;;;4.28;;
45784;SDS011;31489;51.404;5.474;2023-04-15T08:12:58;4.80;;;3.95;;
45784;SDS011;31489;51.404;5.474;2023-04-15T08:15:23;4.95;;;4.13;;
45784;SDS011;31489;51.404;5.474;2023-04-15T08:17:49;4.45;;;4.05;;
45784;SDS011;31489;51.404;5.474;2023-04-15T08:20:15;7.90;;;3.92;;
45784;SDS011;31489;51.404;5.474;2023-04-15T08:22:41;4.30;;;3.63;;
45784;SDS011;31489;51.404;5.474;2023-04-15T08:25:06;4.20;;;3.72;;
45784;SDS011;31489;51.404;5.474;2023-04-15T08:27:33;5.85;;;3.83;;
45784;SDS011;31489;51.404;5.474;2023-04-15T08:29:59;3.83;;;3.42;;
45784;SDS011;31489;51.404;5.474;2023-04-15T08:32:25;4.35;;;3.85;;
45784;SDS011;31489;51.404;5.474;2023-04-15T08:34:51;6.63;;;4.22;;
45784;SDS011;31489;51.404;5.474;2023-04-15T08:37:17;4.40;;;4.00;;
45784;SDS011;31489;51.404;5.474;2023-04-15T08:39:42;4.05;;;3.63;;
45784;SDS011;31489;51.404;5.474;2023-04-15T08:42:15;5.40;;;4.25;;
45784;SDS011;31489;51.404;5.474;2023-04-15T08:44:42;17.80;;;13.60;;
45784;SDS011;31489;51.404;5.474;2023-04-15T08:47:09;7.70;;;6.75;;
45784;SDS011;31489;51.404;5.474;2023-04-15T08:49:40;6.07;;;5.15;;
45784;SDS011;31489;51.404;5.474;2023-04-15T08:52:07;6.05;;;4.57;;
45784;SDS011;31489;51.404;5.474;2023-04-15T08:54:33;6.78;;;4.30;;
45784;SDS011;31489;51.404;5.474;2023-04-15T08:56:59;7.22;;;4.25;;
45784;SDS011;31489;51.404;5.474;2023-04-15T08:59:26;9.75;;;3.83;;
45784;SDS011;31489;51.404;5.474;2023-04-15T09:01:54;4.95;;;3.88;;
45784;SDS011;31489;51.404;5.474;2023-04-15T09:04:21;5.05;;;3.75;;
45784;SDS011;31489;51.404;5.474;2023-04-15T09:06:46;5.95;;;3.03;;
45784;SDS011;31489;51.404;5.474;2023-04-15T09:09:12;4.47;;;3.25;;
45784;SDS011;31489;51.404;5.474;2023-04-15T09:11:40;4.45;;;3.20;;
45784;SDS011;31489;51.404;5.474;2023-04-15T09:14:06;4.10;;;3.03;;
45784;SDS011;31489;51.404;5.474;2023-04-15T09:16:54;3.70;;;2.70;;
45784;SDS011;31489;51.404;5.474;2023-04-15T09:19:28;4.07;;;3.05;;
45784;SDS011;31489;51.404;5.474;2023-04-15T09:21:55;3.58;;;3.03;;
45784;SDS011;31489;51.404;5.474;2023-04-15T09:24:21;5.35;;;3.50;;
45784;SDS011;31489;51.404;5.474;2023-04-15T09:26:47;4.68;;;3.05;;
45784;SDS011;31489;51.404;5.474;2023-04-15T09:29:17;5.50;;;3.30;;
45784;SDS011;31489;51.404;5.474;2023-04-15T09:31:43;5.65;;;3.35;;
45784;SDS011;31489;51.404;5.474;2023-04-15T09:34:08;3.83;;;2.78;;
45784;SDS011;31489;51.404;5.474;2023-04-15T09:36:53;4.53;;;2.90;;
45784;SDS011;31489;51.404;5.474;2023-04-15T09:39:20;3.67;;;3.10;;
45784;SDS011;31489;51.404;5.474;2023-04-15T09:41:46;4.75;;;3.20;;
45784;SDS011;31489;51.404;5.474;2023-04-15T09:44:27;3.40;;;2.92;;
45784;SDS011;31489;51.404;5.474;2023-04-15T09:46:53;4.18;;;3.30;;
45784;SDS011;31489;51.404;5.474;2023-04-15T09:49:19;3.55;;;3.13;;
45784;SDS011;31489;51.404;5.474;2023-04-15T09:51:47;3.88;;;3.17;;
45784;SDS011;31489;51.404;5.474;2023-04-15T09:54:17;4.63;;;3.65;;
45784;SDS011;31489;51.404;5.474;2023-04-15T09:56:45;3.63;;;2.83;;
45784;SDS011;31489;51.404;5.474;2023-04-15T09:59:10;3.97;;;2.90;;
45784;SDS011;31489;51.404;5.474;2023-04-15T10:01:36;2.97;;;2.65;;
45784;SDS011;31489;51.404;5.474;2023-04-15T10:04:05;4.15;;;3.25;;
45784;SDS011;31489;51.404;5.474;2023-04-15T10:06:31;3.65;;;2.80;;
45784;SDS011;31489;51.404;5.474;2023-04-15T10:08:57;3.60;;;2.63;;
45784;SDS011;31489;51.404;5.474;2023-04-15T10:11:23;7.32;;;2.78;;
45784;SDS011;31489;51.404;5.474;2023-04-15T10:13:50;2.72;;;2.28;;
45784;SDS011;31489;51.404;5.474;2023-04-15T10:16:18;2.53;;;1.92;;
45784;SDS011;31489;51.404;5.474;2023-04-15T10:18:45;3.78;;;2.65;;
45784;SDS011;31489;51.404;5.474;2023-04-15T10:21:13;2.65;;;2.20;;
45784;SDS011;31489;51.404;5.474;2023-04-15T10:23:42;3.97;;;2.30;;
45784;SDS011;31489;51.404;5.474;2023-04-15T10:26:09;3.20;;;2.35;;
45784;SDS011;31489;51.404;5.474;2023-04-15T10:28:37;2.92;;;2.63;;
45784;SDS011;31489;51.404;5.474;2023-04-15T10:31:03;3.05;;;2.72;;
45784;SDS011;31489;51.404;5.474;2023-04-15T10:33:29;2.65;;;2.45;;
45784;SDS011;31489;51.404;5.474;2023-04-15T10:35:58;4.15;;;3.00;;
45784;SDS011;31489;51.404;5.474;2023-04-15T10:38:38;3.63;;;2.85;;
45784;SDS011;31489;51.404;5.474;2023-04-15T10:43:56;3.05;;;2.70;;
45784;SDS011;31489;51.404;5.474;2023-04-15T10:49:07;2.00;;;1.80;;
45784;SDS011;31489;51.404;5.474;2023-04-15T10:51:38;3.08;;;1.90;;
45784;SDS011;31489;51.404;5.474;2023-04-15T10:54:31;1.77;;;1.67;;
45784;SDS011;31489;51.404;5.474;2023-04-15T10:59:30;1.48;;;1.25;;
45784;SDS011;31489;51.404;5.474;2023-04-15T11:02:06;1.77;;;1.48;;
45784;SDS011;31489;51.404;5.474;2023-04-15T11:07:35;1.75;;;1.55;;
45784;SDS011;31489;51.404;5.474;2023-04-15T11:12:38;1.27;;;1.17;;
45784;SDS011;31489;51.404;5.474;2023-04-15T11:18:10;1.23;;;1.10;;
45784;SDS011;31489;51.404;5.474;2023-04-15T11:20:37;1.17;;;1.00;;
45784;SDS011;31489;51.404;5.474;2023-04-15T11:23:03;1.63;;;1.13;;
45784;SDS011;31489;51.404;5.474;2023-04-15T11:25:33;1.73;;;1.40;;
45784;SDS011;31489;51.404;5.474;2023-04-15T11:28:01;1.27;;;1.10;;
45784;SDS011;31489;51.404;5.474;2023-04-15T11:30:29;1.95;;;1.38;;
45784;SDS011;31489;51.404;5.474;2023-04-15T11:33:02;1.50;;;1.13;;
45784;SDS011;31489;51.404;5.474;2023-04-15T11:35:30;1.20;;;1.10;;
45784;SDS011;31489;51.404;5.474;2023-04-15T11:37:56;2.03;;;1.27;;
45784;SDS011;31489;51.404;5.474;2023-04-15T11:40:25;1.67;;;1.10;;
45784;SDS011;31489;51.404;5.474;2023-04-15T11:43:05;1.30;;;1.20;;
45784;SDS011;31489;51.404;5.474;2023-04-15T11:45:32;1.33;;;1.17;;
45784;SDS011;31489;51.404;5.474;2023-04-15T11:48:04;1.30;;;1.20;;
45784;SDS011;31489;51.404;5.474;2023-04-15T11:50:31;1.80;;;1.40;;
45784;SDS011;31489;51.404;5.474;2023-04-15T11:53:04;3.95;;;1.80;;
45784;SDS011;31489;51.404;5.474;2023-04-15T11:55:30;2.97;;;1.88;;
45784;SDS011;31489;51.404;5.474;2023-04-15T12:00:34;1.88;;;1.40;;
45784;SDS011;31489;51.404;5.474;2023-04-15T12:03:16;2.63;;;1.80;;
45784;SDS011;31489;51.404;5.474;2023-04-15T12:16:49;1.70;;;1.40;;
45784;SDS011;31489;51.404;5.474;2023-04-15T12:19:21;2.13;;;1.60;;
45784;SDS011;31489;51.404;5.474;2023-04-15T12:21:57;1.40;;;1.30;;
45784;SDS011;31489;51.404;5.474;2023-04-15T12:24:24;1.75;;;1.50;;
45784;SDS011;31489;51.404;5.474;2023-04-15T12:26:54;2.05;;;1.60;;
45784;SDS011;31489;51.404;5.474;2023-04-15T12:29:27;1.75;;;1.42;;
45784;SDS011;31489;51.404;5.474;2023-04-15T12:31:55;2.20;;;1.60;;
45784;SDS011;31489;51.404;5.474;2023-04-15T12:34:35;1.60;;;1.50;;
45784;SDS011;31489;51.404;5.474;2023-04-15T12:37:01;1.77;;;1.67;;
45784;SDS011;31489;51.404;5.474;2023-04-15T12:39:28;1.75;;;1.48;;
45784;SDS011;31489;51.404;5.474;2023-04-15T12:41:56;1.48;;;1.38;;
45784;SDS011;31489;51.404;5.474;2023-04-15T12:44:25;1.90;;;1.30;;
45784;SDS011;31489;51.404;5.474;2023-04-15T12:46:51;2.58;;;1.52;;
45784;SDS011;31489;51.404;5.474;2023-04-15T12:49:17;3.95;;;1.60;;
45784;SDS011;31489;51.404;5.474;2023-04-15T12:51:47;2.70;;;1.50;;
45784;SDS011;31489;51.404;5.474;2023-04-15T12:54:15;2.65;;;1.55;;
45784;SDS011;31489;51.404;5.474;2023-04-15T12:56:41;1.85;;;1.55;;
45784;SDS011;31489;51.404;5.474;2023-04-15T12:59:07;2.22;;;1.85;;
45784;SDS011;31489;51.404;5.474;2023-04-15T13:01:33;2.00;;;1.83;;
45784;SDS011;31489;51.404;5.474;2023-04-15T13:03:58;2.25;;;1.90;;
45784;SDS011;31489;51.404;5.474;2023-04-15T13:06:24;1.95;;;1.85;;
45784;SDS011;31489;51.404;5.474;2023-04-15T13:08:50;2.10;;;1.80;;
45784;SDS011;31489;51.404;5.474;2023-04-15T13:11:18;2.80;;;1.77;;
45784;SDS011;31489;51.404;5.474;2023-04-15T13:13:46;2.47;;;1.55;;
45784;SDS011;31489;51.404;5.474;2023-04-15T13:16:12;2.90;;;1.70;;
45784;SDS011;31489;51.404;5.474;2023-04-15T13:18:38;1.73;;;1.60;;
45784;SDS011;31489;51.404;5.474;2023-04-15T13:21:06;1.83;;;1.60;;
45784;SDS011;31489;51.404;5.474;2023-04-15T13:23:32;1.88;;;1.42;;
45784;SDS011;31489;51.404;5.474;2023-04-15T13:25:58;1.33;;;1.20;;
45784;SDS011;31489;51.404;5.474;2023-04-15T13:28:23;3.13;;;1.73;;
45784;SDS011;31489;51.404;5.474;2023-04-15T13:30:49;1.50;;;1.40;;
45784;SDS011;31489;51.404;5.474;2023-04-15T13:33:15;3.15;;;1.50;;
45784;SDS011;31489;51.404;5.474;2023-04-15T13:35:41;3.03;;;1.40;;
45784;SDS011;31489;51.404;5.474;2023-04-15T13:38:06;1.83;;;1.35;;
45784;SDS011;31489;51.404;5.474;2023-04-15T13:40:32;3.28;;;1.85;;
45784;SDS011;31489;51.404;5.474;2023-04-15T13:42:58;1.50;;;1.40;;
45784;SDS011;31489;51.404;5.474;2023-04-15T13:45:24;1.80;;;1.05;;
45784;SDS011;31489;51.404;5.474;2023-04-15T13:47:50;1.90;;;1.45;;
45784;SDS011;31489;51.404;5.474;2023-04-15T13:50:15;1.33;;;1.00;;
45784;SDS011;31489;51.404;5.474;2023-04-15T13:52:41;2.60;;;1.20;;
45784;SDS011;31489;51.404;5.474;2023-04-15T13:55:07;1.40;;;1.10;;
45784;SDS011;31489;51.404;5.474;2023-04-15T13:57:33;1.88;;;1.05;;
45784;SDS011;31489;51.404;5.474;2023-04-15T13:59:59;1.48;;;1.13;;
45784;SDS011;31489;51.404;5.474;2023-04-15T14:02:24;1.75;;;1.35;;
45784;SDS011;31489;51.404;5.474;2023-04-15T14:04:50;1.58;;;1.10;;
45784;SDS011;31489;51.404;5.474;2023-04-15T14:07:15;2.05;;;1.35;;
45784;SDS011;31489;51.404;5.474;2023-04-15T14:09:42;3.70;;;1.23;;
45784;SDS011;31489;51.404;5.474;2023-04-15T14:12:08;1.38;;;1.10;;
45784;SDS011;31489;51.404;5.474;2023-04-15T14:14:35;2.22;;;1.40;;
45784;SDS011;31489;51.404;5.474;2023-04-15T14:17:01;1.30;;;1.20;;
45784;SDS011;31489;51.404;5.474;2023-04-15T14:19:28;1.90;;;1.20;;
45784;SDS011;31489;51.404;5.474;2023-04-15T14:21:55;3.63;;;1.27;;
45784;SDS011;31489;51.404;5.474;2023-04-15T14:24:20;1.30;;;1.20;;
45784;SDS011;31489;51.404;5.474;2023-04-15T14:26:46;2.13;;;1.33;;
45784;SDS011;31489;51.404;5.474;2023-04-15T14:29:11;1.48;;;1.30;;
45784;SDS011;31489;51.404;5.474;2023-04-15T14:31:37;2.67;;;1.20;;
45784;SDS011;31489;51.404;5.474;2023-04-15T14:34:03;2.08;;;1.02;;
45784;SDS011;31489;51.404;5.474;2023-04-15T14:36:28;2.25;;;1.30;;
45784;SDS011;31489;51.404;5.474;2023-04-15T14:38:55;1.77;;;1.13;;
45784;SDS011;31489;51.404;5.474;2023-04-15T14:41:22;1.73;;;1.00;;
45784;SDS011;31489;51.404;5.474;2023-04-15T14:43:48;1.20;;;1.10;;
45784;SDS011;31489;51.404;5.474;2023-04-15T14:46:14;1.80;;;1.10;;
45784;SDS011;31489;51.404;5.474;2023-04-15T14:48:39;1.00;;;0.90;;
45784;SDS011;31489;51.404;5.474;2023-04-15T14:51:06;1.05;;;0.90;;
45784;SDS011;31489;51.404;5.474;2023-04-15T14:53:31;1.65;;;0.90;;
45784;SDS011;31489;51.404;5.474;2023-04-15T14:55:57;1.15;;;0.93;;
45784;SDS011;31489;51.404;5.474;2023-04-15T14:58:23;1.13;;;0.70;;
45784;SDS011;31489;51.404;5.474;2023-04-15T15:00:49;2.95;;;1.02;;
45784;SDS011;31489;51.404;5.474;2023-04-15T15:03:14;2.25;;;0.90;;
45784;SDS011;31489;51.404;5.474;2023-04-15T15:05:40;1.63;;;1.05;;
45784;SDS011;31489;51.404;5.474;2023-04-15T15:08:08;0.77;;;0.73;;
45784;SDS011;31489;51.404;5.474;2023-04-15T15:10:34;2.05;;;0.90;;
45784;SDS011;31489;51.404;5.474;2023-04-15T15:13:01;1.67;;;1.08;;